Time;durP1;ratioP1;P1;durP2;ratioP2;P2;SDS_P1;SDS_P2;PMS_P1;PMS_P2;Temp;Humidity;BMP_temperature;BMP_pressure;BME280_temperature;BME280_humidity;BME280_pressure;Samples;Min_cycle;Max_cycle;Signal;HPM_P1;HPM_P2
2023/04/27 00:00:34;;;;;;;4.63;4.25;;;;;;;4.81;77.57;101364.75;7790876;18;20009;-69
2023/04/27 00:03:04;;;;;;;6.28;5.10;;;;;;;4.76;77.72;101377.00;7789384;18;20002;-71
2023/04/27 00:05:35;;;;;;;5.78;5.30;;;;;;;4.44;79.65;101342.00;7787325;18;20013;-71
2023/04/27 00:08:02;;;;;;;6.13;4.97;;;;;;;4.69;79.13;101384.06;7787024;18;20085;-70
2023/04/27 00:10:28;;;;;;;5.10;4.70;;;;;;;4.16;80.92;101313.00;7786944;18;20157;-70
2023/04/27 00:12:55;;;;;;;5.65;5.10;;;;;;;4.14;81.81;101327.75;7787001;18;20062;-70
2023/04/27 00:15:21;;;;;;;5.55;4.53;;;;;;;4.56;82.53;101406.78;7787505;18;20056;-70
2023/04/27 00:17:48;;;;;;;4.60;4.20;;;;;;;4.06;82.38;101330.47;7787380;18;19994;-71
2023/04/27 00:20:14;;;;;;;5.18;4.88;;;;;;;4.59;82.37;101417.13;7786822;18;20006;-71
2023/04/27 00:22:41;;;;;;;5.72;5.22;;;;;;;4.60;82.18;101428.38;7746422;18;19994;-73
2023/04/27 00:25:08;;;;;;;5.28;4.80;;;;;;;4.09;82.34;101329.56;7786358;18;20013;-71
2023/04/27 00:27:34;;;;;;;4.95;4.55;;;;;;;4.62;82.85;101424.03;7787813;18;19998;-70
2023/04/27 00:30:00;;;;;;;4.68;4.38;;;;;;;4.56;82.36;101417.16;7786752;18;20001;-72
2023/04/27 00:32:27;;;;;;;7.55;5.40;;;;;;;4.32;83.03;101381.19;7787514;18;20230;-72
2023/04/27 00:34:53;;;;;;;5.78;5.28;;;;;;;4.72;83.20;101430.78;7787564;18;20043;-72
2023/04/27 00:37:20;;;;;;;4.78;4.47;;;;;;;3.75;82.30;101270.34;7788034;18;20000;-72
2023/04/27 00:39:46;;;;;;;4.28;4.00;;;;;;;4.62;83.50;101417.97;7745853;18;20006;-72
2023/04/27 00:42:16;;;;;;;5.90;5.07;;;;;;;4.71;85.20;101447.28;7787212;18;20008;-73
2023/04/27 00:44:42;;;;;;;4.70;4.35;;;;;;;4.67;85.24;101456.03;7784307;18;20363;-71
2023/04/27 00:47:09;;;;;;;6.03;5.53;;;;;;;4.66;85.01;101449.09;7787836;18;20001;-70
2023/04/27 00:49:36;;;;;;;9.27;5.53;;;;;;;4.07;84.97;101358.16;7787284;18;20001;-72
2023/04/27 00:52:03;;;;;;;5.25;4.85;;;;;;;4.26;85.01;101376.06;7746129;18;20002;-71
2023/04/27 00:54:30;;;;;;;4.90;4.53;;;;;;;4.67;85.24;101436.94;7787295;18;20415;-71
2023/04/27 00:56:56;;;;;;;7.80;4.85;;;;;;;4.54;84.75;101412.88;7788498;18;20053;-71
2023/04/27 00:59:24;;;;;;;6.18;5.78;;;;;;;3.98;84.74;101319.34;7785304;18;20125;-71
2023/04/27 01:01:51;;;;;;;4.93;4.55;;;;;;;4.60;84.36;101418.00;7744204;18;19994;-70
2023/04/27 01:04:18;;;;;;;5.13;4.75;;;;;;;4.54;83.56;101416.34;7742684;18;20085;-72
2023/04/27 01:06:45;;;;;;;5.20;4.68;;;;;;;4.38;84.25;101402.72;7786607;18;20214;-71
2023/04/27 01:09:12;;;;;;;4.68;4.38;;;;;;;4.53;83.69;101424.16;7784211;18;20257;-70
2023/04/27 01:11:39;;;;;;;4.43;4.13;;;;;;;4.49;84.17;101425.09;7785382;18;19994;-70
2023/04/27 01:14:06;;;;;;;5.05;4.65;;;;;;;4.46;85.26;101426.00;7785168;18;20198;-70
2023/04/27 01:16:34;;;;;;;5.70;5.30;;;;;;;4.39;85.26;101433.03;7743428;18;20011;-72
2023/04/27 01:19:00;;;;;;;6.07;5.60;;;;;;;4.37;85.19;101429.59;7783206;18;20017;-72
2023/04/27 01:21:27;;;;;;;5.05;4.75;;;;;;;3.65;86.20;101324.13;7784141;18;20156;-71
2023/04/27 01:23:54;;;;;;;5.68;4.63;;;;;;;3.79;86.44;101353.34;7785557;18;20002;-70
2023/04/27 01:26:22;;;;;;;4.13;3.83;;;;;;;3.53;85.80;101298.34;7785555;18;20009;-71
2023/04/27 01:28:49;;;;;;;4.97;4.57;;;;;;;4.27;86.22;101428.03;7784958;18;20453;-71
2023/04/27 01:31:15;;;;;;;5.93;5.43;;;;;;;3.62;86.47;101346.66;7785618;18;20014;-70
2023/04/27 01:33:42;;;;;;;4.28;4.05;;;;;;;4.07;87.06;101428.28;7785846;18;20001;-71
2023/04/27 01:36:08;;;;;;;5.25;4.85;;;;;;;3.80;86.92;101395.75;7786672;18;20220;-71
2023/04/27 01:38:36;;;;;;;4.82;4.53;;;;;;;3.89;87.45;101423.31;7786006;18;21542;-73
2023/04/27 01:41:08;;;;;;;4.35;4.05;;;;;;;3.78;88.02;101436.44;7787846;18;20049;-71
2023/04/27 01:43:36;;;;;;;4.85;4.50;;;;;;;2.99;89.21;101317.16;7785166;18;19997;-70
2023/04/27 01:46:11;;;;;;;4.38;4.07;;;;;;;3.64;89.90;101439.22;7785161;18;20132;-71
2023/04/27 01:48:39;;;;;;;4.38;4.07;;;;;;;3.58;90.50;101442.72;7787239;18;19990;-71
2023/04/27 01:51:05;;;;;;;4.68;4.38;;;;;;;3.53;90.67;101451.47;7787211;18;20301;-71
2023/04/27 01:53:32;;;;;;;4.03;3.72;;;;;;;2.99;91.09;101371.59;7786615;18;20005;-71
2023/04/27 01:55:59;;;;;;;4.55;4.25;;;;;;;2.88;93.08;101371.69;7787047;18;20072;-70
2023/04/27 01:58:26;;;;;;;4.65;4.40;;;;;;;3.33;92.88;101457.72;7785585;18;19998;-71
2023/04/27 02:00:53;;;;;;;5.20;4.72;;;;;;;3.29;94.09;101458.63;7787152;18;20385;-70
2023/04/27 02:03:19;;;;;;;5.78;3.97;;;;;;;3.24;95.24;101486.31;7785714;18;20078;-70
2023/04/27 02:05:46;;;;;;;4.38;4.18;;;;;;;3.12;96.29;101453.56;7785552;18;20010;-71
2023/04/27 02:08:13;;;;;;;5.20;4.80;;;;;;;3.19;97.82;101472.56;7786851;18;20463;-71
2023/04/27 02:10:40;;;;;;;4.80;4.38;;;;;;;2.88;98.35;101420.94;7787253;18;20438;-70
2023/04/27 02:13:06;;;;;;;5.43;5.03;;;;;;;3.01;98.88;101439.88;7785411;18;20304;-70
2023/04/27 02:15:34;;;;;;;4.00;3.80;;;;;;;2.93;99.42;101418.34;7787123;18;20154;-71
2023/04/27 02:18:02;;;;;;;4.82;4.40;;;;;;;2.94;99.05;101428.66;7744651;18;20351;-71
2023/04/27 02:20:30;;;;;;;7.03;4.88;;;;;;;2.86;98.81;101401.09;7747515;18;20014;-71
2023/04/27 02:22:56;;;;;;;4.57;4.28;;;;;;;3.30;98.04;101472.44;7748100;18;20010;-71
2023/04/27 02:25:23;;;;;;;5.25;4.47;;;;;;;3.30;97.46;101472.44;7785530;18;19994;-71
2023/04/27 02:27:49;;;;;;;6.60;5.43;;;;;;;3.18;97.65;101471.66;7785638;18;20013;-70
2023/04/27 02:30:16;;;;;;;11.45;4.85;;;;;;;3.17;97.61;101475.16;7785217;18;19994;-72
2023/04/27 02:32:43;;;;;;;5.50;5.05;;;;;;;3.02;97.48;101451.94;7786771;18;20112;-70
2023/04/27 02:35:10;;;;;;;13.07;5.20;;;;;;;2.75;97.96;101396.88;7784952;18;20002;-73
2023/04/27 02:37:36;;;;;;;5.47;5.00;;;;;;;3.07;98.17;101463.16;7786752;18;20002;-70
2023/04/27 02:40:06;;;;;;;5.43;4.93;;;;;;;2.67;98.04;101403.84;7783371;18;20058;-71
2023/04/27 02:42:32;;;;;;;4.13;3.88;;;;;;;2.84;99.08;101437.41;7786912;18;20233;-71
2023/04/27 02:44:59;;;;;;;4.13;3.83;;;;;;;3.02;99.40;101457.13;7785586;18;20013;-68
2023/04/27 02:47:26;;;;;;;5.50;5.13;;;;;;;3.00;99.17;101459.72;7784446;18;20114;-71
2023/04/27 02:49:52;;;;;;;4.68;4.30;;;;;;;2.98;99.18;101458.03;7786000;18;20002;-70
2023/04/27 02:52:19;;;;;;;8.73;4.68;;;;;;;2.94;98.40;101443.38;7785217;18;20015;-71
2023/04/27 02:54:45;;;;;;;5.47;5.07;;;;;;;2.35;98.64;101352.31;7786043;18;20010;-72
2023/04/27 02:57:12;;;;;;;5.47;5.00;;;;;;;2.89;98.98;101447.75;7785648;18;20057;-70
2023/04/27 02:59:40;;;;;;;5.88;4.78;;;;;;;2.68;98.40;101408.16;7783673;18;20438;-70
2023/04/27 03:02:07;;;;;;;4.53;4.22;;;;;;;2.50;99.33;101374.63;7786742;18;20018;-71
2023/04/27 03:04:35;;;;;;;3.90;3.70;;;;;;;2.90;99.07;101439.09;7786039;18;20056;-71
2023/04/27 03:07:02;;;;;;;6.05;5.32;;;;;;;2.30;99.48;101336.78;7786009;18;20006;-70
2023/04/27 03:09:29;;;;;;;5.45;4.95;;;;;;;2.43;99.34;101370.38;7785000;18;20002;-71
2023/04/27 03:11:55;;;;;;;3.42;3.22;;;;;;;2.48;99.50;101379.81;7786332;18;20077;-71
2023/04/27 03:14:22;;;;;;;4.40;3.97;;;;;;;2.79;99.89;101424.50;7784677;18;19998;-72
2023/04/27 03:16:48;;;;;;;4.38;4.18;;;;;;;2.76;99.40;101421.91;7786671;18;20106;-71
2023/04/27 03:19:14;;;;;;;4.70;4.40;;;;;;;2.55;99.21;101391.84;7746199;18;19998;-72
2023/04/27 03:21:41;;;;;;;5.00;4.70;;;;;;;2.69;99.44;101425.44;7786663;18;19994;-72
2023/04/27 03:24:08;;;;;;;5.15;4.80;;;;;;;2.69;99.69;101425.44;7784518;18;20571;-71
2023/04/27 03:26:34;;;;;;;4.00;3.80;;;;;;;2.69;100.00;101432.38;7787029;18;19994;-71
2023/04/27 03:29:00;;;;;;;10.95;5.30;;;;;;;2.67;100.00;101428.91;7786173;18;20458;-72
2023/04/27 03:31:27;;;;;;;5.07;4.63;;;;;;;2.40;100.00;101381.59;7785742;18;20487;-71
2023/04/27 03:33:53;;;;;;;3.38;3.22;;;;;;;1.74;100.00;101284.53;7743929;18;20006;-71
2023/04/27 03:36:20;;;;;;;4.80;4.40;;;;;;;2.69;100.00;101450.50;7784977;18;20337;-71
2023/04/27 03:38:46;;;;;;;4.13;3.83;;;;;;;1.57;100.00;101240.66;7785064;18;20002;-73
2023/04/27 03:41:12;;;;;;;5.93;5.43;;;;;;;1.85;100.00;101284.47;7785883;18;20006;-71
2023/04/27 03:43:39;;;;;;;4.93;4.60;;;;;;;2.68;100.00;101413.34;7786681;18;20056;-71
2023/04/27 03:46:05;;;;;;;6.50;4.80;;;;;;;2.63;100.00;101415.13;7785242;18;20503;-70
2023/04/27 03:48:32;;;;;;;5.13;4.70;;;;;;;2.61;100.00;101406.50;7782309;18;20030;-71
2023/04/27 03:50:59;;;;;;;4.25;3.92;;;;;;;2.58;100.00;101406.50;7786162;18;20193;-70
2023/04/27 03:53:26;;;;;;;4.00;3.72;;;;;;;2.60;100.00;101415.13;7786213;18;20317;-70
2023/04/27 03:55:52;;;;;;;4.50;4.10;;;;;;;2.54;100.00;101416.03;7786521;18;20423;-70
2023/04/27 03:58:19;;;;;;;4.72;4.40;;;;;;;2.51;100.00;101416.06;7785702;18;19996;-70
2023/04/27 04:00:45;;;;;;;6.63;4.28;;;;;;;2.51;100.00;101410.88;7786954;18;20502;-69
2023/04/27 04:03:11;;;;;;;7.80;5.43;;;;;;;2.51;100.00;101417.81;7742926;18;20000;-70
2023/04/27 04:05:38;;;;;;;3.85;3.65;;;;;;;2.22;100.00;101371.38;7787274;18;20211;-70
2023/04/27 04:08:05;;;;;;;4.38;4.07;;;;;;;2.52;100.00;101429.88;7785983;18;20056;-69
2023/04/27 04:10:31;;;;;;;4.72;4.32;;;;;;;2.43;100.00;101423.03;7785961;18;20002;-71
2023/04/27 04:12:57;;;;;;;5.13;4.57;;;;;;;2.44;100.00;101435.09;7784704;18;20014;-70
2023/04/27 04:15:24;;;;;;;4.03;3.78;;;;;;;2.36;100.00;101429.97;7786015;18;19998;-70
2023/04/27 04:17:51;;;;;;;4.95;4.60;;;;;;;2.33;100.00;101427.41;7785542;18;19998;-69
2023/04/27 04:20:17;;;;;;;6.03;5.43;;;;;;;2.26;100.00;101422.28;7784388;18;20093;-71
2023/04/27 04:22:44;;;;;;;9.35;4.97;;;;;;;2.22;100.00;101420.56;7785838;18;20277;-73
2023/04/27 04:25:11;;;;;;;5.65;4.65;;;;;;;1.84;100.00;101355.19;7784827;18;20410;-71
2023/04/27 04:27:39;;;;;;;3.95;3.60;;;;;;;1.96;100.00;101373.25;7791376;18;20053;-71
2023/04/27 04:30:06;;;;;;;5.18;4.47;;;;;;;1.94;100.00;101343.06;7784024;18;20049;-70
2023/04/27 04:32:36;;;;;;;6.63;4.53;;;;;;;2.66;100.00;101433.22;7785255;18;20002;-70
2023/04/27 04:35:04;;;;;;;8.50;4.60;;;;;;;2.40;100.00;101374.69;7785095;18;20002;-70
2023/04/27 04:37:33;;;;;;;4.93;4.30;;;;;;;2.84;100.00;101437.41;7785155;18;20010;-70
2023/04/27 04:40:02;;;;;;;6.43;4.53;;;;;;;2.85;100.00;101433.94;7783390;18;19993;-71
2023/04/27 04:42:28;;;;;;;5.00;4.45;;;;;;;2.90;100.00;101433.91;7784872;18;19994;-71
2023/04/27 04:44:55;;;;;;;4.32;4.03;;;;;;;2.87;100.00;101434.78;7784875;18;20002;-70
2023/04/27 04:47:22;;;;;;;5.82;5.30;;;;;;;2.93;100.00;101439.06;7785454;18;20014;-72
2023/04/27 04:49:48;;;;;;;4.90;4.50;;;;;;;3.32;100.00;101455.97;7782643;18;20014;-70
2023/04/27 04:52:15;;;;;;;4.72;4.30;;;;;;;3.89;100.00;101468.34;7784206;18;20131;-72
2023/04/27 04:54:41;;;;;;;5.78;5.28;;;;;;;4.49;100.00;101485.75;7784777;18;20005;-70
2023/04/27 04:57:07;;;;;;;4.90;4.57;;;;;;;4.61;99.37;101427.53;7744584;18;20476;-71
2023/04/27 04:59:34;;;;;;;5.10;4.70;;;;;;;5.09;95.75;101419.78;7784775;18;20005;-70
2023/04/27 05:02:00;;;;;;;4.80;4.50;;;;;;;5.98;92.97;101471.91;7786043;18;20002;-71
2023/04/27 05:04:27;;;;;;;5.30;5.00;;;;;;;6.47;90.19;101459.56;7785402;18;20077;-71
2023/04/27 05:06:54;;;;;;;4.60;4.25;;;;;;;6.98;87.76;101452.22;7785094;18;20030;-70
2023/04/27 05:09:22;;;;;;;5.95;5.45;;;;;;;7.26;84.06;101421.97;7783876;18;20439;-69
2023/04/27 05:11:49;;;;;;;6.63;5.85;;;;;;;7.39;79.68;101378.94;7784239;18;20005;-71
2023/04/27 05:14:15;;;;;;;5.60;5.20;;;;;;;7.48;77.89;101330.81;7784971;18;20078;-72
2023/04/27 05:16:42;;;;;;;7.18;5.60;;;;;;;8.01;75.94;101340.56;7788412;18;20040;-71
2023/04/27 05:19:08;;;;;;;13.45;7.30;;;;;;;7.85;71.91;101270.47;7787866;18;20408;-69
2023/04/27 05:21:35;;;;;;;18.98;5.93;;;;;;;7.80;70.12;101204.44;7787321;18;20076;-71
2023/04/27 05:24:01;;;;;;;5.72;5.32;;;;;;;8.26;69.18;101213.38;7785607;18;20000;-71
2023/04/27 05:26:27;;;;;;;6.28;5.65;;;;;;;8.54;67.55;101194.13;7744980;18;20178;-70
2023/04/27 05:28:54;;;;;;;9.35;5.95;;;;;;;8.09;66.80;101100.66;7785497;18;20469;-72
2023/04/27 05:31:20;;;;;;;6.65;6.05;;;;;;;8.89;67.04;101200.69;7785984;18;20006;-70
2023/04/27 05:33:47;;;;;;;5.78;5.32;;;;;;;8.79;65.26;101126.03;7787062;18;19994;-70
2023/04/27 05:36:13;;;;;;;7.68;6.03;;;;;;;9.26;64.82;101161.75;7786350;18;20233;-70
2023/04/27 05:38:40;;;;;;;9.45;5.88;;;;;;;9.48;64.11;101141.69;7787418;18;20001;-71
2023/04/27 05:41:07;;;;;;;7.35;6.57;;;;;;;9.58;63.23;101119.41;7788156;18;20429;-71
2023/04/27 05:43:34;;;;;;;8.80;5.82;;;;;;;8.76;62.81;101017.09;7786364;18;20068;-72
2023/04/27 05:46:00;;;;;;;6.90;6.25;;;;;;;9.76;63.40;101146.63;7787672;18;20383;-70
2023/04/27 05:48:27;;;;;;;10.38;6.43;;;;;;;9.50;62.61;101081.34;7786916;18;20086;-70
2023/04/27 05:51:00;;;;;;;6.30;5.80;;;;;;;9.72;62.29;101116.22;7785385;18;19998;-72
2023/04/27 05:53:27;;;;;;;8.98;6.43;;;;;;;9.33;63.28;101116.94;7787767;18;20005;-70
2023/04/27 05:55:53;;;;;;;7.18;6.03;;;;;;;8.92;65.19;101135.13;7786592;18;20002;-71
2023/04/27 05:58:20;;;;;;;10.80;6.35;;;;;;;8.04;66.43;101120.88;7787631;18;20068;-70
2023/04/27 06:00:47;;;;;;;6.55;5.90;;;;;;;7.56;67.28;101125.97;7786897;18;20066;-72
2023/04/27 06:03:13;;;;;;;9.77;7.50;;;;;;;7.87;69.11;101245.13;7786141;18;20018;-71
2023/04/27 06:05:40;;;;;;;5.80;5.35;;;;;;;7.49;70.38;101213.22;7787564;18;19994;-71
2023/04/27 06:08:08;;;;;;;6.55;5.82;;;;;;;7.73;70.27;101281.31;7784885;18;20010;-72
2023/04/27 06:10:35;;;;;;;6.38;5.65;;;;;;;6.95;71.02;101195.72;7784613;18;20020;-72
2023/04/27 06:13:02;;;;;;;6.63;6.03;;;;;;;7.29;71.77;101315.66;7786049;18;20573;-72
2023/04/27 06:15:28;;;;;;;6.97;6.28;;;;;;;7.37;73.21;101331.13;7787874;18;20032;-72
2023/04/27 06:17:55;;;;;;;6.72;6.13;;;;;;;7.17;73.93;101329.06;7786555;18;20006;-72
2023/04/27 06:20:21;;;;;;;7.72;7.00;;;;;;;7.13;73.93;101346.56;7785261;18;20002;-70
2023/04/27 06:22:48;;;;;;;6.15;5.55;;;;;;;6.88;75.80;101317.69;7745120;18;19993;-72
2023/04/27 06:25:14;;;;;;;7.70;6.85;;;;;;;7.32;75.62;101385.25;7785716;18;20008;-70
2023/04/27 06:27:41;;;;;;;5.63;5.13;;;;;;;7.33;75.09;101386.94;7788194;18;19998;-70
2023/04/27 06:30:07;;;;;;;6.43;5.90;;;;;;;7.47;74.52;101382.19;7743133;18;20130;-70
2023/04/27 06:32:34;;;;;;;6.93;5.43;;;;;;;7.40;73.65;101365.00;7785309;18;20442;-70
2023/04/27 06:35:01;;;;;;;6.55;5.93;;;;;;;7.52;74.85;101362.03;7785937;18;20355;-71
2023/04/27 06:37:27;;;;;;;7.28;6.57;;;;;;;7.67;73.49;101368.53;7786935;18;20008;-70
2023/04/27 06:39:54;;;;;;;8.57;5.70;;;;;;;7.46;73.63;101350.91;7786720;18;20014;-70
2023/04/27 06:42:20;;;;;;;9.07;6.38;;;;;;;7.12;73.35;101279.63;7787295;18;20022;-71
2023/04/27 06:44:47;;;;;;;5.90;5.47;;;;;;;6.98;72.06;101243.47;7785296;18;20053;-70
2023/04/27 06:47:13;;;;;;;6.90;5.88;;;;;;;7.36;71.62;101304.16;7786626;18;20009;-69
2023/04/27 06:49:40;;;;;;;5.85;5.38;;;;;;;7.54;72.85;101330.66;7788627;18;20061;-69
2023/04/27 06:52:06;;;;;;;6.40;5.90;;;;;;;7.55;71.87;101333.19;7742442;18;20006;-71
2023/04/27 06:54:33;;;;;;;10.63;5.43;;;;;;;7.61;71.34;101326.09;7787187;18;20004;-71
2023/04/27 06:56:59;;;;;;;5.85;5.35;;;;;;;7.68;71.89;101332.84;7786508;18;20578;-70
2023/04/27 06:59:26;;;;;;;7.75;6.00;;;;;;;7.94;70.75;101340.75;7785658;18;20014;-70
2023/04/27 07:01:52;;;;;;;8.10;7.00;;;;;;;8.03;71.22;101339.59;7786235;18;20298;-70
2023/04/27 07:04:19;;;;;;;10.57;6.25;;;;;;;7.97;71.12;101314.50;7785069;18;20001;-71
2023/04/27 07:06:45;;;;;;;6.30;5.65;;;;;;;8.02;69.03;101282.13;7787495;18;20094;-70
2023/04/27 07:09:14;;;;;;;9.75;6.32;;;;;;;8.15;68.17;101268.63;7785176;18;20368;-70
2023/04/27 07:11:53;;;;;;;5.65;5.22;;;;;;;7.87;67.71;101192.88;7787029;18;20260;-70
2023/04/27 07:14:19;;;;;;;8.45;6.68;;;;;;;8.27;67.39;101230.75;7784835;18;20002;-70
2023/04/27 07:16:46;;;;;;;6.13;5.55;;;;;;;7.75;66.49;101135.78;7785873;18;20018;-69
2023/04/27 07:19:13;;;;;;;6.80;5.95;;;;;;;8.36;67.78;101251.38;7743496;18;20008;-70
2023/04/27 07:21:39;;;;;;;6.85;6.00;;;;;;;8.58;65.67;101224.50;7785409;18;19998;-70
2023/04/27 07:24:06;;;;;;;6.03;5.53;;;;;;;8.19;64.99;101123.81;7784979;18;20006;-69
2023/04/27 07:26:33;;;;;;;6.18;5.63;;;;;;;8.42;65.35;101171.88;7786899;18;20221;-70
2023/04/27 07:28:59;;;;;;;6.10;5.70;;;;;;;8.49;64.65;101148.97;7785224;18;20284;-69
2023/04/27 07:31:32;;;;;;;6.07;5.63;;;;;;;8.44;63.58;101093.34;7786580;18;20190;-70
2023/04/27 07:34:00;;;;;;;6.97;6.20;;;;;;;8.58;62.32;101101.53;7744664;18;19996;-69
2023/04/27 07:36:27;;;;;;;5.65;5.25;;;;;;;8.20;62.43;101022.72;7786479;18;20014;-70
2023/04/27 07:38:54;;;;;;;6.95;5.38;;;;;;;8.30;61.61;101016.22;7784497;18;20060;-69
2023/04/27 07:41:22;;;;;;;9.45;4.68;;;;;;;8.84;62.05;101069.16;7786042;18;20404;-70
2023/04/27 07:43:50;;;;;;;8.48;6.68;;;;;;;8.99;60.86;101086.84;7785794;18;20549;-70
2023/04/27 07:46:17;;;;;;;10.00;6.80;;;;;;;8.99;60.79;101068.53;7786465;18;20009;-70
2023/04/27 07:48:44;;;;;;;11.85;5.78;;;;;;;8.81;59.98;100993.38;7786641;18;20012;-70
2023/04/27 07:51:14;;;;;;;8.13;6.97;;;;;;;7.90;60.44;100850.47;7744459;18;20007;-69
2023/04/27 07:53:41;;;;;;;8.38;5.88;;;;;;;8.57;59.78;100928.00;7785533;18;19998;-70
2023/04/27 07:56:08;;;;;;;8.52;7.03;;;;;;;8.98;59.65;100985.69;7786431;18;20038;-69
2023/04/27 07:58:36;;;;;;;6.75;6.15;;;;;;;9.26;59.02;101007.25;7786469;18;20320;-69
2023/04/27 08:01:03;;;;;;;15.07;7.15;;;;;;;9.33;59.45;101001.69;7783905;18;20065;-74
2023/04/27 08:03:29;;;;;;;6.32;5.72;;;;;;;9.46;58.46;100988.94;7785641;18;20005;-70
2023/04/27 08:05:56;;;;;;;7.80;5.72;;;;;;;9.23;56.91;100872.06;7785535;18;20235;-70
2023/04/27 08:08:23;;;;;;;6.68;5.85;;;;;;;8.66;56.88;100772.44;7784663;18;20010;-71
2023/04/27 08:10:50;;;;;;;5.63;5.22;;;;;;;9.71;57.20;100953.78;7787444;18;20006;-71
2023/04/27 08:13:18;;;;;;;7.20;5.75;;;;;;;9.46;55.07;100815.16;7784838;18;20229;-73
2023/04/27 08:15:44;;;;;;;5.95;5.50;;;;;;;9.90;55.46;100872.53;7785544;18;20006;-70
2023/04/27 08:18:11;;;;;;;7.15;6.18;;;;;;;10.07;56.05;100929.47;7785685;18;20057;-69
2023/04/27 08:20:37;;;;;;;8.75;7.35;;;;;;;10.27;54.97;100890.03;7784469;18;20010;-69
2023/04/27 08:23:04;;;;;;;6.13;5.60;;;;;;;10.21;54.20;100858.00;7785079;18;20010;-70
2023/04/27 08:25:31;;;;;;;5.72;5.20;;;;;;;10.67;53.87;100890.75;7785404;18;20002;-69
2023/04/27 08:27:57;;;;;;;5.90;5.40;;;;;;;10.62;52.80;100829.75;7785024;18;20317;-71
2023/04/27 08:30:24;;;;;;;7.55;6.47;;;;;;;10.96;53.49;100905.06;7784188;18;20049;-69
2023/04/27 08:32:51;;;;;;;5.95;5.43;;;;;;;10.80;52.25;100820.09;7785542;18;20088;-70
2023/04/27 08:35:17;;;;;;;11.25;6.28;;;;;;;11.02;51.90;100795.34;7784269;18;20030;-73
2023/04/27 08:37:44;;;;;;;8.48;6.30;;;;;;;10.67;50.90;100730.63;7785945;18;20008;-70
2023/04/27 08:40:11;;;;;;;7.30;6.63;;;;;;;10.79;50.99;100718.66;7783100;18;19998;-72
2023/04/27 08:42:41;;;;;;;8.52;6.53;;;;;;;11.05;51.48;100816.22;7784738;18;20245;-70
2023/04/27 08:45:08;;;;;;;11.30;5.90;;;;;;;10.44;50.76;100694.22;7783361;18;20049;-71
2023/04/27 08:47:34;;;;;;;10.63;6.80;;;;;;;10.56;50.73;100730.34;7784626;18;19998;-70
2023/04/27 08:50:11;;;;;;;6.57;6.07;;;;;;;10.92;50.75;100790.56;7784689;18;20002;-70
2023/04/27 08:52:37;;;;;;;5.85;5.47;;;;;;;11.01;49.72;100755.13;7783694;18;19999;-70
2023/04/27 08:55:06;;;;;;;5.93;5.53;;;;;;;10.87;49.29;100734.00;7744198;18;20018;-70
2023/04/27 08:57:32;;;;;;;7.30;6.32;;;;;;;11.08;48.87;100751.22;7787293;18;20002;-71
2023/04/27 09:00:00;;;;;;;7.15;6.47;;;;;;;11.46;48.85;100823.66;7786168;18;20013;-70
2023/04/27 09:02:28;;;;;;;8.60;6.05;;;;;;;11.52;48.25;100786.53;7786639;18;20006;-70
2023/04/27 09:04:55;;;;;;;5.95;5.55;;;;;;;11.37;49.07;100825.84;7785761;18;20098;-73
2023/04/27 09:07:22;;;;;;;7.53;5.80;;;;;;;11.28;47.19;100723.88;7787911;18;20273;-70
2023/04/27 09:09:49;;;;;;;6.15;5.65;;;;;;;11.47;47.10;100762.31;7787102;18;20006;-69
2023/04/27 09:12:17;;;;;;;6.47;5.88;;;;;;;11.67;47.53;100826.94;7786854;18;20002;-70
2023/04/27 09:14:56;;;;;;;11.82;7.30;;;;;;;11.90;46.57;100788.84;7786484;18;20022;-70
2023/04/27 09:17:29;;;;;;;6.60;6.00;;;;;;;12.05;46.05;100795.03;7786927;18;20008;-70
2023/04/27 09:20:12;;;;;;;8.60;5.90;;;;;;;11.92;45.39;100769.41;7786510;18;20006;-69
2023/04/27 09:22:43;;;;;;;6.50;5.90;;;;;;;12.20;46.55;100846.78;7787212;18;20213;-71
2023/04/27 09:25:09;;;;;;;6.68;6.10;;;;;;;11.60;46.58;100757.22;7744434;18;20184;-70
2023/04/27 09:27:42;;;;;;;6.75;6.15;;;;;;;12.17;45.88;100837.28;7787423;18;21443;-70
2023/04/27 09:30:13;;;;;;;7.32;6.22;;;;;;;12.02;45.92;100805.72;7785459;18;20470;-70
2023/04/27 09:32:48;;;;;;;7.68;6.95;;;;;;;11.92;45.75;100779.94;7788010;18;20002;-70
2023/04/27 09:35:22;;;;;;;6.60;6.00;;;;;;;12.25;46.62;100875.44;7788642;18;20399;-71
2023/04/27 09:37:53;;;;;;;7.47;6.78;;;;;;;12.18;45.70;100846.84;7786786;18;19990;-73
2023/04/27 09:40:28;;;;;;;7.03;6.25;;;;;;;12.43;45.02;100823.53;7788174;18;19998;-70
2023/04/27 09:42:56;;;;;;;8.98;6.70;;;;;;;13.03;44.48;100897.28;7788338;18;20002;-72
2023/04/27 09:45:24;;;;;;;7.10;6.45;;;;;;;12.93;45.11;100881.16;7788581;18;20014;-71
2023/04/27 09:47:51;;;;;;;8.82;6.03;;;;;;;13.47;45.03;100962.34;7788342;18;20021;-71
2023/04/27 09:50:18;;;;;;;6.90;6.30;;;;;;;13.41;44.53;100917.03;7788352;18;20017;-71
2023/04/27 09:52:45;;;;;;;6.78;6.18;;;;;;;12.52;45.21;100844.94;7786890;18;20064;-71
2023/04/27 09:55:23;;;;;;;7.65;6.47;;;;;;;12.65;44.86;100865.28;7784195;18;20017;-71
2023/04/27 09:58:21;;;;;;;8.00;6.43;;;;;;;12.87;43.74;100844.66;7787365;18;20001;-71
2023/04/27 10:01:19;;;;;;;6.88;6.28;;;;;;;12.64;44.57;100847.78;7706974;18;20063;-71
2023/04/27 10:04:12;;;;;;;8.52;6.75;;;;;;;12.38;44.89;100853.63;7786013;18;20006;-70
2023/04/27 10:07:11;;;;;;;10.00;6.65;;;;;;;12.73;44.68;100870.97;7787529;18;20308;-70
2023/04/27 10:09:49;;;;;;;7.35;6.70;;;;;;;12.61;45.16;100893.59;7750864;18;20018;-72
2023/04/27 10:12:42;;;;;;;10.63;6.47;;;;;;;13.01;43.99;100917.59;7745574;18;20025;-70
2023/04/27 10:15:14;;;;;;;10.00;6.45;;;;;;;12.74;42.31;100777.84;7777766;18;20002;-73
2023/04/27 10:17:48;;;;;;;7.13;6.25;;;;;;;12.46;42.29;100744.41;7791254;18;20001;-70
2023/04/27 10:20:16;;;;;;;7.18;6.47;;;;;;;13.47;42.74;100925.44;7785293;18;20187;-72
2023/04/27 10:22:45;;;;;;;5.97;5.57;;;;;;;13.21;42.69;100876.91;7746254;18;20013;-71
2023/04/27 10:25:20;;;;;;;7.30;6.55;;;;;;;13.08;41.26;100807.41;7786056;18;20062;-71
2023/04/27 10:27:55;;;;;;;6.78;6.30;;;;;;;13.26;41.52;100814.19;7786630;18;20021;-70
2023/04/27 10:30:23;;;;;;;8.13;6.43;;;;;;;12.80;41.81;100787.16;7786652;18;20151;-72
2023/04/27 10:32:58;;;;;;;7.03;6.10;;;;;;;13.11;42.25;100870.44;7834974;18;20226;-71
2023/04/27 10:35:36;;;;;;;6.90;6.28;;;;;;;13.48;41.49;100852.44;7787673;18;20032;-71
2023/04/27 10:38:07;;;;;;;7.30;6.35;;;;;;;13.61;39.75;100826.16;7833611;18;20955;-71
2023/04/27 10:40:34;;;;;;;7.97;5.90;;;;;;;13.90;39.44;100835.72;7745147;18;20439;-71
2023/04/27 10:43:09;;;;;;;6.95;6.35;;;;;;;13.94;39.05;100847.75;7834292;18;20246;-70
2023/04/27 10:45:35;;;;;;;7.82;6.68;;;;;;;14.10;40.62;100965.53;7746352;18;19994;-71
2023/04/27 10:48:01;;;;;;;9.05;6.40;;;;;;;14.20;39.36;100910.38;7835370;18;20072;-71
2023/04/27 10:50:28;;;;;;;7.53;6.78;;;;;;;14.43;38.88;100911.53;7787194;18;20002;-72
2023/04/27 10:53:00;;;;;;;7.40;6.70;;;;;;;13.98;39.34;100897.72;7834594;18;20061;-70
2023/04/27 10:55:27;;;;;;;6.82;6.32;;;;;;;14.34;39.20;100921.75;7784570;18;20002;-71
2023/04/27 10:57:54;;;;;;;7.50;6.80;;;;;;;14.51;39.96;100975.25;7834165;18;20069;-70
2023/04/27 11:00:42;;;;;;;8.02;7.32;;;;;;;14.49;39.89;100971.88;7786824;18;20491;-70
2023/04/27 11:03:18;;;;;;;7.97;7.28;;;;;;;14.09;39.60;100909.28;7791624;18;20866;-72
2023/04/27 11:05:47;;;;;;;7.82;7.00;;;;;;;14.21;40.14;100944.56;7786626;18;19998;-71
2023/04/27 11:08:19;;;;;;;7.72;6.95;;;;;;;14.09;41.36;101027.16;7834333;18;20032;-72
2023/04/27 11:10:50;;;;;;;;;;;;;;;14.17;41.24;101019.63;7787596;18;20273;-70
2023/04/27 11:13:19;;;;;;;7.63;6.72;;;;;;;14.28;39.05;100931.84;7833384;18;19979;-72
2023/04/27 11:15:48;;;;;;;7.75;6.95;;;;;;;14.67;39.44;100999.78;7785780;18;20002;-70
2023/04/27 11:18:16;;;;;;;8.50;7.03;;;;;;;14.23;39.04;100897.84;7834875;18;20209;-72
2023/04/27 11:20:46;;;;;;;7.88;6.90;;;;;;;13.42;39.39;100789.56;7786939;18;20441;-72
2023/04/27 11:23:35;;;;;;;13.40;7.30;;;;;;;14.29;39.33;100950.25;7834207;18;20426;-71
2023/04/27 11:26:15;;;;;;;7.68;6.60;;;;;;;14.39;40.56;101028.84;7787069;18;20010;-72
2023/04/27 11:28:57;;;;;;;8.02;7.32;;;;;;;14.95;39.16;101045.53;7833248;18;20028;-72
2023/04/27 11:31:25;;;;;;;7.93;7.13;;;;;;;14.65;39.66;100990.25;7787965;18;19994;-72
2023/04/27 11:33:53;;;;;;;8.85;7.65;;;;;;;14.42;37.80;100873.72;7793158;18;20518;-72